createdAt,value
2022-10-30T00:01:36.298Z,9.43
2022-10-30T00:04:02.828Z,9.98
2022-10-30T00:06:29.290Z,10.55
2022-10-30T00:08:56.025Z,9.57
2022-10-30T00:11:22.728Z,9.95
2022-10-30T00:13:49.280Z,9.07
2022-10-30T00:16:16.351Z,9.73
2022-10-30T00:18:43.328Z,9.38
2022-10-30T00:21:12.792Z,9.40
2022-10-30T00:23:45.048Z,9.68
2022-10-30T00:26:11.539Z,10.05
2022-10-30T00:28:38.038Z,9.13
2022-10-30T00:31:05.464Z,9.15
2022-10-30T00:33:32.129Z,8.43
2022-10-30T00:35:58.944Z,9.77
2022-10-30T00:38:25.464Z,9.43
2022-10-30T00:40:52.232Z,8.77
2022-10-30T00:43:39.508Z,9.25
2022-10-30T00:46:16.334Z,10.13
2022-10-30T00:48:45.943Z,8.88
2022-10-30T00:51:13.913Z,8.45
2022-10-30T00:53:42.089Z,9.57
2022-10-30T00:56:10.467Z,9.10
2022-10-30T00:58:42.531Z,10.77
2022-10-30T01:01:16.133Z,8.80
2022-10-30T01:03:42.762Z,10.50
2022-10-30T01:06:11.820Z,9.50
2022-10-30T01:08:38.766Z,8.60
2022-10-30T01:11:06.302Z,9.85
2022-10-30T01:13:35.904Z,9.82
2022-10-30T01:16:36.557Z,9.07
2022-10-30T01:19:24.153Z,8.70
2022-10-30T01:21:58.191Z,9.63
2022-10-30T01:24:56.694Z,9.73
2022-10-30T01:27:41.672Z,9.63
2022-10-30T01:30:49.953Z,8.63
2022-10-30T01:33:54.659Z,8.70
2022-10-30T01:36:33.430Z,8.85
2022-10-30T01:39:10.844Z,9.15
2022-10-30T01:41:37.368Z,10.82
2022-10-30T01:44:12.492Z,9.43
2022-10-30T01:46:51.150Z,9.57
2022-10-30T01:49:17.671Z,9.70
2022-10-30T01:52:02.415Z,8.88
2022-10-30T01:54:34.867Z,8.90
2022-10-30T01:57:48.168Z,9.80
2022-10-30T02:00:17.276Z,9.38
2022-10-30T02:02:44.256Z,10.00
2022-10-30T02:05:20.051Z,9.13
2022-10-30T02:07:46.597Z,8.90
2022-10-30T02:10:13.292Z,9.05
2022-10-30T02:12:39.997Z,9.63
2022-10-30T02:15:06.964Z,8.85
2022-10-30T02:17:34.330Z,10.10
2022-10-30T02:20:00.808Z,8.75
2022-10-30T02:22:27.631Z,8.60
2022-10-30T02:24:54.191Z,9.57
2022-10-30T02:27:20.701Z,8.90
2022-10-30T02:29:47.256Z,8.73
2022-10-30T02:32:13.784Z,8.52
2022-10-30T02:34:40.353Z,8.40
2022-10-30T02:37:06.839Z,10.00
2022-10-30T02:39:33.647Z,9.20
2022-10-30T02:42:02.157Z,8.60
2022-10-30T02:44:28.679Z,9.30
2022-10-30T02:46:55.161Z,8.82
2022-10-30T02:49:21.719Z,9.63
2022-10-30T02:51:48.200Z,9.25
2022-10-30T02:54:14.661Z,9.35
2022-10-30T02:56:41.171Z,7.38
2022-10-30T02:59:07.822Z,8.07
2022-10-30T03:01:34.959Z,9.48
2022-10-30T03:04:01.559Z,9.25
2022-10-30T03:06:28.672Z,8.30
2022-10-30T03:08:55.171Z,8.52
2022-10-30T03:11:21.744Z,8.90
2022-10-30T03:13:49.573Z,9.73
2022-10-30T03:16:21.711Z,7.82
2022-10-30T03:18:49.162Z,8.48
2022-10-30T03:21:18.399Z,8.18
2022-10-30T03:23:45.440Z,7.93
2022-10-30T03:26:12.051Z,8.63
2022-10-30T03:28:38.528Z,7.65
2022-10-30T03:31:13.699Z,10.23
2022-10-30T03:33:41.022Z,8.00
2022-10-30T03:36:10.239Z,7.78
2022-10-30T03:38:37.838Z,8.88
2022-10-30T03:41:04.833Z,7.70
2022-10-30T03:43:31.833Z,9.30
2022-10-30T03:45:58.700Z,8.00
2022-10-30T03:48:27.528Z,9.15
2022-10-30T03:50:56.128Z,8.65
2022-10-30T03:53:24.052Z,8.32
2022-10-30T03:55:50.754Z,9.40
2022-10-30T03:58:17.406Z,9.07
2022-10-30T04:00:44.089Z,8.35
2022-10-30T04:03:11.529Z,8.85
2022-10-30T04:05:39.285Z,9.25
2022-10-30T04:08:11.100Z,8.52
2022-10-30T04:10:37.794Z,7.80
2022-10-30T04:13:06.557Z,7.97
2022-10-30T04:15:33.716Z,8.50
2022-10-30T04:18:00.891Z,8.80
2022-10-30T04:20:28.086Z,9.05
2022-10-30T04:23:03.306Z,10.75
2022-10-30T04:25:30.653Z,8.05
2022-10-30T04:27:57.639Z,8.57
2022-10-30T04:30:27.759Z,8.77
2022-10-30T04:32:58.140Z,9.00
2022-10-30T04:35:29.591Z,9.15
2022-10-30T04:37:58.692Z,7.50
2022-10-30T04:40:26.957Z,8.18
2022-10-30T04:42:53.770Z,8.20
2022-10-30T04:45:20.566Z,8.60
2022-10-30T04:47:47.436Z,8.10
2022-10-30T04:50:14.210Z,9.13
2022-10-30T04:52:41.545Z,8.93
2022-10-30T04:55:09.606Z,7.65
2022-10-30T04:57:37.016Z,9.50
2022-10-30T05:00:08.423Z,8.23
2022-10-30T05:02:36.981Z,8.73
2022-10-30T05:05:04.592Z,8.57
2022-10-30T05:07:31.151Z,8.20
2022-10-30T05:09:57.674Z,8.15
2022-10-30T05:12:24.247Z,8.57
2022-10-30T05:14:50.833Z,8.25
2022-10-30T05:17:17.410Z,8.02
2022-10-30T05:19:44.170Z,7.78
2022-10-30T05:22:11.058Z,8.07
2022-10-30T05:24:37.628Z,7.30
2022-10-30T05:27:04.177Z,8.48
2022-10-30T05:29:30.726Z,8.80
2022-10-30T05:31:57.281Z,9.18
2022-10-30T05:34:23.763Z,8.00
2022-10-30T05:36:50.361Z,7.78
2022-10-30T05:39:16.841Z,8.45
2022-10-30T05:41:43.614Z,7.90
2022-10-30T05:44:10.182Z,8.05
2022-10-30T05:46:36.757Z,8.13
2022-10-30T05:49:03.968Z,6.93
2022-10-30T05:51:30.688Z,8.13
2022-10-30T05:53:57.188Z,8.38
2022-10-30T05:56:23.779Z,7.82
2022-10-30T05:58:50.756Z,8.65
2022-10-30T06:01:18.003Z,9.10
2022-10-30T06:03:44.983Z,8.40
2022-10-30T06:06:12.168Z,7.35
2022-10-30T06:08:38.673Z,8.52
2022-10-30T06:11:05.165Z,7.20
2022-10-30T06:13:31.754Z,8.65
2022-10-30T06:15:58.409Z,8.48
2022-10-30T06:18:24.883Z,8.23
2022-10-30T06:20:51.410Z,8.00
2022-10-30T06:23:17.924Z,7.70
2022-10-30T06:25:44.857Z,8.20
2022-10-30T06:28:13.425Z,8.10
2022-10-30T06:30:40.104Z,7.15
2022-10-30T06:33:07.308Z,9.05
2022-10-30T06:35:33.879Z,9.15
2022-10-30T06:38:00.588Z,9.18
2022-10-30T06:40:28.419Z,7.82
2022-10-30T06:42:55.223Z,8.52
2022-10-30T06:45:23.745Z,7.38
2022-10-30T06:47:50.408Z,8.35
2022-10-30T06:50:19.222Z,7.38
2022-10-30T06:52:45.961Z,7.97
2022-10-30T06:55:12.642Z,8.73
2022-10-30T06:57:39.366Z,7.78
2022-10-30T07:00:07.670Z,8.60
2022-10-30T07:02:34.861Z,7.45
2022-10-30T07:05:01.504Z,9.13
2022-10-30T07:07:28.633Z,8.00
2022-10-30T07:09:55.104Z,8.38
2022-10-30T07:12:21.687Z,7.90
2022-10-30T07:14:48.538Z,7.75
2022-10-30T07:17:15.233Z,7.75
2022-10-30T07:19:41.739Z,7.70
2022-10-30T07:22:08.439Z,8.15
2022-10-30T07:24:34.991Z,7.95
2022-10-30T07:27:01.549Z,7.55
2022-10-30T07:29:28.049Z,7.32
2022-10-30T07:32:02.748Z,7.55
2022-10-30T07:34:29.797Z,7.60
2022-10-30T07:36:56.250Z,7.55
2022-10-30T07:39:22.825Z,8.40
2022-10-30T07:41:50.676Z,8.02
2022-10-30T07:44:17.471Z,8.48
2022-10-30T07:46:44.160Z,7.50
2022-10-30T07:49:10.816Z,8.50
2022-10-30T07:51:37.300Z,7.45
2022-10-30T07:54:03.951Z,7.20
2022-10-30T07:56:30.471Z,7.60
2022-10-30T07:58:57.021Z,7.15
2022-10-30T08:01:23.708Z,6.90
2022-10-30T08:03:50.653Z,6.70
2022-10-30T08:06:20.009Z,6.60
2022-10-30T08:08:49.578Z,6.53
2022-10-30T08:11:16.086Z,7.50
2022-10-30T08:13:42.567Z,7.10
2022-10-30T08:16:09.034Z,7.70
2022-10-30T08:18:35.573Z,6.85
2022-10-30T08:21:02.146Z,7.63
2022-10-30T08:23:28.669Z,6.97
2022-10-30T08:25:57.483Z,7.07
2022-10-30T08:28:28.151Z,7.20
2022-10-30T08:30:58.694Z,6.70
2022-10-30T08:33:25.647Z,6.78
2022-10-30T08:35:54.462Z,6.68
2022-10-30T08:38:21.089Z,7.20
2022-10-30T08:40:47.665Z,7.05
2022-10-30T08:43:14.512Z,6.82
2022-10-30T08:45:41.273Z,7.13
2022-10-30T08:48:11.856Z,6.55
2022-10-30T08:50:38.411Z,7.30
2022-10-30T08:53:07.524Z,7.30
2022-10-30T08:55:35.001Z,5.57
2022-10-30T08:58:01.698Z,7.82
2022-10-30T09:00:29.219Z,6.88
2022-10-30T09:02:56.341Z,8.13
2022-10-30T09:05:23.800Z,7.95
2022-10-30T09:07:55.192Z,7.82
2022-10-30T09:10:21.978Z,7.85
2022-10-30T09:12:48.491Z,7.03
2022-10-30T09:15:15.047Z,6.80
2022-10-30T09:17:41.496Z,6.82
2022-10-30T09:20:08.437Z,6.85
2022-10-30T09:22:34.964Z,6.30
2022-10-30T09:25:01.426Z,7.75
2022-10-30T09:27:27.938Z,6.30
2022-10-30T09:29:55.110Z,6.00
2022-10-30T09:32:21.735Z,7.30
2022-10-30T09:34:48.269Z,6.70
2022-10-30T09:37:14.893Z,6.82
2022-10-30T09:39:41.345Z,6.78
2022-10-30T09:42:55.479Z,6.50
2022-10-30T09:45:34.067Z,7.68
2022-10-30T09:48:25.274Z,7.15
2022-10-30T09:51:41.319Z,8.00
2022-10-30T09:54:44.546Z,6.75
2022-10-30T09:57:21.134Z,6.30
2022-10-30T10:00:02.738Z,6.95
2022-10-30T10:02:38.065Z,6.00
2022-10-30T10:05:15.503Z,6.15
2022-10-30T10:07:47.803Z,5.70
2022-10-30T10:10:26.584Z,6.07
2022-10-30T10:13:00.348Z,6.57
2022-10-30T10:15:37.360Z,6.40
2022-10-30T10:18:12.714Z,6.65
2022-10-30T10:20:46.714Z,6.10
2022-10-30T10:23:20.271Z,6.10
2022-10-30T10:25:54.005Z,6.00
2022-10-30T10:28:47.476Z,7.60
2022-10-30T10:31:13.898Z,6.25
2022-10-30T10:34:18.751Z,6.85
2022-10-30T10:37:09.793Z,6.35
2022-10-30T10:40:33.271Z,6.18
2022-10-30T10:43:30.691Z,6.55
2022-10-30T10:46:34.059Z,6.10
2022-10-30T10:49:40.119Z,5.22
2022-10-30T10:52:17.466Z,5.55
2022-10-30T10:54:47.824Z,6.20
2022-10-30T10:57:23.689Z,5.95
2022-10-30T10:59:55.158Z,6.88
2022-10-30T11:02:40.208Z,6.45
2022-10-30T11:05:36.251Z,5.82
2022-10-30T11:08:32.854Z,6.65
2022-10-30T11:11:01.434Z,5.70
2022-10-30T11:13:31.387Z,5.03
2022-10-30T11:16:16.138Z,5.35
2022-10-30T11:18:44.575Z,5.45
2022-10-30T11:21:19.694Z,6.35
2022-10-30T11:23:48.319Z,5.72
2022-10-30T11:26:17.997Z,5.30
2022-10-30T11:29:11.428Z,6.25
2022-10-30T11:31:42.947Z,5.72
2022-10-30T11:34:18.445Z,6.18
2022-10-30T11:36:50.043Z,5.30
2022-10-30T11:39:21.895Z,6.57
2022-10-30T11:42:00.510Z,5.38
2022-10-30T11:44:35.267Z,5.68
2022-10-30T11:47:02.904Z,5.13
2022-10-30T11:49:47.680Z,5.30
2022-10-30T11:52:18.118Z,5.82
2022-10-30T11:54:54.749Z,5.32
2022-10-30T11:57:43.543Z,4.82
2022-10-30T12:00:25.771Z,6.05
2022-10-30T12:02:54.728Z,5.47
2022-10-30T12:05:27.620Z,5.55
2022-10-30T12:07:59.125Z,6.00
2022-10-30T12:10:29.444Z,5.30
2022-10-30T12:12:57.418Z,6.10
2022-10-30T12:15:27.991Z,5.75
2022-10-30T12:17:59.552Z,4.93
2022-10-30T12:20:27.535Z,5.40
2022-10-30T12:22:55.123Z,5.40
2022-10-30T12:25:27.830Z,5.60
2022-10-30T12:28:05.018Z,4.82
2022-10-30T12:30:38.048Z,5.28
2022-10-30T12:33:20.971Z,5.68
2022-10-30T12:35:47.532Z,6.10
2022-10-30T12:38:21.554Z,5.32
2022-10-30T12:43:42.344Z,5.43
2022-10-30T12:46:18.014Z,4.75
2022-10-30T12:48:53.917Z,5.65
2022-10-30T12:51:39.022Z,4.30
2022-10-30T12:54:17.650Z,4.15
2022-10-30T12:56:49.329Z,4.00
2022-10-30T12:59:48.237Z,4.95
2022-10-30T13:02:35.966Z,4.25
2022-10-30T13:05:33.186Z,4.75
2022-10-30T13:08:13.015Z,4.03
2022-10-30T13:10:54.025Z,5.45
2022-10-30T13:13:27.238Z,5.43
2022-10-30T13:15:57.264Z,5.47
2022-10-30T13:18:31.372Z,5.30
2022-10-30T13:23:56.918Z,5.43
2022-10-30T13:26:29.113Z,4.90
2022-10-30T13:29:07.465Z,5.60
2022-10-30T13:31:52.686Z,4.38
2022-10-30T13:34:34.786Z,4.78
2022-10-30T13:37:38.330Z,4.75
2022-10-30T13:40:14.589Z,4.70
2022-10-30T13:42:56.622Z,5.07
2022-10-30T13:45:44.735Z,5.03
2022-10-30T13:48:14.219Z,4.60
2022-10-30T13:50:49.659Z,5.03
2022-10-30T13:53:24.453Z,5.03
2022-10-30T13:55:51.787Z,4.45
2022-10-30T13:58:46.237Z,4.38
2022-10-30T14:01:12.676Z,5.18
2022-10-30T14:03:57.673Z,4.45
2022-10-30T14:06:33.694Z,5.43
2022-10-30T14:09:12.669Z,4.80
2022-10-30T14:11:39.237Z,4.45
2022-10-30T14:14:23.844Z,4.80
2022-10-30T14:17:09.606Z,5.13
2022-10-30T14:20:13.294Z,4.85
2022-10-30T14:22:40.997Z,4.65
2022-10-30T14:25:15.937Z,4.72
2022-10-30T14:27:42.773Z,4.57
2022-10-30T14:30:28.995Z,4.47
2022-10-30T14:32:55.790Z,4.57
2022-10-30T14:35:39.509Z,4.53
2022-10-30T14:38:08.701Z,4.05
2022-10-30T14:40:41.798Z,5.25
2022-10-30T14:43:32.175Z,4.03
2022-10-30T14:46:10.792Z,4.57
2022-10-30T14:48:58.169Z,4.57
2022-10-30T14:51:46.623Z,5.30
2022-10-30T14:54:24.476Z,3.92
2022-10-30T14:56:54.182Z,4.68
2022-10-30T14:59:24.877Z,4.53
2022-10-30T15:02:13.495Z,3.90
2022-10-30T15:04:45.849Z,4.10
2022-10-30T15:07:45.376Z,4.47
2022-10-30T15:10:34.787Z,4.25
2022-10-30T15:13:19.752Z,4.70
2022-10-30T15:15:57.064Z,4.50
2022-10-30T15:18:25.685Z,4.13
2022-10-30T15:21:04.698Z,4.22
2022-10-30T15:23:34.484Z,4.88
2022-10-30T15:26:20.842Z,4.00
2022-10-30T15:28:50.406Z,4.35
2022-10-30T15:31:24.649Z,4.28
2022-10-30T15:33:53.288Z,4.03
2022-10-30T15:36:23.096Z,5.10
2022-10-30T15:39:13.076Z,4.28
2022-10-30T15:42:01.890Z,4.22
2022-10-30T15:44:35.081Z,3.95
2022-10-30T15:47:04.157Z,4.57
2022-10-30T15:49:33.406Z,4.45
2022-10-30T15:52:03.564Z,5.18
2022-10-30T15:54:32.593Z,4.03
2022-10-30T15:57:36.540Z,4.45
2022-10-30T15:59:53.342Z,3.95
2022-10-30T16:02:26.768Z,4.60
2022-10-30T16:04:54.077Z,4.47
2022-10-30T16:07:28.676Z,4.45
2022-10-30T16:09:57.710Z,4.45
2022-10-30T16:12:26.365Z,5.07
2022-10-30T16:14:54.805Z,4.13
2022-10-30T16:17:22.195Z,4.40
2022-10-30T16:19:53.381Z,4.68
2022-10-30T16:22:28.396Z,3.90
2022-10-30T16:24:56.930Z,5.20
2022-10-30T16:27:24.748Z,3.65
2022-10-30T16:29:55.567Z,3.50
2022-10-30T16:32:26.114Z,3.70
2022-10-30T16:34:57.425Z,3.88
2022-10-30T16:37:44.221Z,5.05
2022-10-30T16:40:15.075Z,5.38
2022-10-30T16:42:45.163Z,4.63
2022-10-30T16:45:11.874Z,4.35
2022-10-30T16:47:50.674Z,5.28
2022-10-30T16:50:17.799Z,4.55
2022-10-30T16:52:44.439Z,4.05
2022-10-30T16:55:23.589Z,4.53
2022-10-30T16:57:55.897Z,4.30
2022-10-30T17:00:27.280Z,4.40
2022-10-30T17:02:56.610Z,4.00
2022-10-30T17:05:27.665Z,4.15
2022-10-30T17:07:57.000Z,4.97
2022-10-30T17:10:32.644Z,4.07
2022-10-30T17:13:36.774Z,5.20
2022-10-30T17:16:26.762Z,4.40
2022-10-30T17:18:59.148Z,4.65
2022-10-30T17:21:38.355Z,4.13
2022-10-30T17:24:06.245Z,4.63
2022-10-30T17:26:40.970Z,4.47
2022-10-30T17:29:37.371Z,5.28
2022-10-30T17:32:19.564Z,4.03
2022-10-30T17:34:46.880Z,3.95
2022-10-30T17:37:13.446Z,4.22
2022-10-30T17:39:39.966Z,4.38
2022-10-30T17:42:06.755Z,3.75
2022-10-30T17:44:35.389Z,4.40
2022-10-30T17:47:14.814Z,4.53
2022-10-30T17:52:14.482Z,3.97
2022-10-30T17:54:42.303Z,4.70
2022-10-30T17:57:13.968Z,5.10
2022-10-30T17:59:41.377Z,4.40
2022-10-30T18:02:19.215Z,3.22
2022-10-30T18:04:47.533Z,4.45
2022-10-30T18:07:16.110Z,4.03
2022-10-30T18:09:43.713Z,5.07
2022-10-30T18:12:15.669Z,4.38
2022-10-30T18:14:43.204Z,4.25
2022-10-30T18:17:10.638Z,3.92
2022-10-30T18:19:37.120Z,4.07
2022-10-30T18:22:03.677Z,3.72
2022-10-30T18:24:30.292Z,3.90
2022-10-30T18:26:56.846Z,4.15
2022-10-30T18:29:23.670Z,4.20
2022-10-30T18:31:50.179Z,3.90
2022-10-30T18:34:21.023Z,5.00
2022-10-30T18:36:48.085Z,3.60
2022-10-30T18:39:14.624Z,4.30
2022-10-30T18:41:45.373Z,4.43
2022-10-30T18:44:17.492Z,4.03
2022-10-30T18:46:44.145Z,4.43
2022-10-30T18:49:11.583Z,4.68
2022-10-30T18:51:38.292Z,4.32
2022-10-30T18:54:11.858Z,4.93
2022-10-30T18:56:38.359Z,4.50
2022-10-30T18:59:04.893Z,4.97
2022-10-30T19:01:34.719Z,4.25
2022-10-30T19:04:03.180Z,4.68
2022-10-30T19:06:30.196Z,4.50
2022-10-30T19:08:56.767Z,4.85
2022-10-30T19:11:25.277Z,4.43
2022-10-30T19:13:53.785Z,4.43
2022-10-30T19:16:21.688Z,5.18
2022-10-30T19:18:48.745Z,4.60
2022-10-30T19:21:20.551Z,4.30
2022-10-30T19:23:48.015Z,4.45
2022-10-30T19:26:15.149Z,4.35
2022-10-30T19:28:42.119Z,4.75
2022-10-30T19:31:13.967Z,4.40
2022-10-30T19:33:40.539Z,4.72
2022-10-30T19:36:07.377Z,4.45
2022-10-30T19:38:34.102Z,5.10
2022-10-30T19:41:00.911Z,4.60
2022-10-30T19:43:27.692Z,4.85
2022-10-30T19:45:56.950Z,3.97
2022-10-30T19:48:47.767Z,4.57
2022-10-30T19:51:11.846Z,4.90
2022-10-30T19:53:39.346Z,4.85
2022-10-30T19:56:06.346Z,4.47
2022-10-30T19:58:32.822Z,4.15
2022-10-30T20:00:59.416Z,4.38
2022-10-30T20:03:25.940Z,6.05
2022-10-30T20:05:52.496Z,5.93
2022-10-30T20:08:18.951Z,5.18
2022-10-30T20:13:24.080Z,4.75
2022-10-30T20:17:46.955Z,5.45
2022-10-30T20:20:16.976Z,5.70
2022-10-30T20:22:43.464Z,5.32
2022-10-30T20:25:11.021Z,4.38
2022-10-30T20:27:39.114Z,5.22
2022-10-30T20:30:07.310Z,4.60
2022-10-30T20:32:34.002Z,5.25
2022-10-30T20:35:00.561Z,4.80
2022-10-30T20:37:27.348Z,4.07
2022-10-30T20:39:54.747Z,5.13
2022-10-30T20:42:24.075Z,5.22
2022-10-30T20:44:51.201Z,4.80
2022-10-30T20:47:17.761Z,4.63
2022-10-30T20:49:44.292Z,4.60
2022-10-30T20:52:10.873Z,5.18
2022-10-30T20:54:37.448Z,5.40
2022-10-30T20:57:04.064Z,4.65
2022-10-30T20:59:30.618Z,5.30
2022-10-30T21:01:57.149Z,5.15
2022-10-30T21:04:23.780Z,5.38
2022-10-30T21:06:50.290Z,4.47
2022-10-30T21:09:17.418Z,5.30
2022-10-30T21:11:43.962Z,4.88
2022-10-30T21:14:10.567Z,5.32
2022-10-30T21:16:37.141Z,5.38
2022-10-30T21:19:03.733Z,4.88
2022-10-30T21:21:30.233Z,4.65
2022-10-30T21:23:57.266Z,4.90
2022-10-30T21:26:24.701Z,5.13
2022-10-30T21:28:51.402Z,4.95
2022-10-30T21:31:18.889Z,5.78
2022-10-30T21:33:45.427Z,5.05
2022-10-30T21:36:15.543Z,4.90
2022-10-30T21:38:43.258Z,6.03
2022-10-30T21:41:15.478Z,5.97
2022-10-30T21:43:42.814Z,4.78
2022-10-30T21:46:12.505Z,5.50
2022-10-30T21:48:39.308Z,5.93
2022-10-30T21:51:20.129Z,4.60
2022-10-30T21:53:47.491Z,4.63
2022-10-30T21:56:25.581Z,4.80
2022-10-30T21:58:52.384Z,4.72
2022-10-30T22:01:22.175Z,4.65
2022-10-30T22:03:49.595Z,5.13
2022-10-30T22:06:18.784Z,4.80
2022-10-30T22:08:47.491Z,5.45
2022-10-30T22:11:14.684Z,5.15
2022-10-30T22:13:41.537Z,4.88
2022-10-30T22:16:11.339Z,5.97
2022-10-30T22:18:38.426Z,4.72
2022-10-30T22:21:07.690Z,5.32
2022-10-30T22:23:35.709Z,6.72
2022-10-30T22:26:04.568Z,6.22
2022-10-30T22:28:32.193Z,5.63
2022-10-30T22:31:07.352Z,4.13
2022-10-30T22:33:34.278Z,5.85
2022-10-30T22:36:16.478Z,4.88
2022-10-30T22:38:43.291Z,6.03
2022-10-30T22:41:12.302Z,4.15
2022-10-30T22:43:39.682Z,4.40
2022-10-30T22:46:06.310Z,5.40
2022-10-30T22:48:32.876Z,6.25
2022-10-30T22:51:01.026Z,5.97
2022-10-30T22:53:28.811Z,4.90
2022-10-30T22:55:55.318Z,6.35
2022-10-30T22:58:22.234Z,5.85
2022-10-30T23:00:49.077Z,6.95
2022-10-30T23:03:15.620Z,5.47
2022-10-30T23:05:42.733Z,5.85
2022-10-30T23:08:09.381Z,5.30
2022-10-30T23:10:35.875Z,6.72
2022-10-30T23:13:02.444Z,5.57
2022-10-30T23:15:28.914Z,6.25
2022-10-30T23:17:55.415Z,6.40
2022-10-30T23:20:21.917Z,6.28
2022-10-30T23:22:48.451Z,5.35
2022-10-30T23:25:14.967Z,5.57
2022-10-30T23:27:41.545Z,6.03
2022-10-30T23:30:08.907Z,5.88
2022-10-30T23:32:35.401Z,5.55
2022-10-30T23:35:01.894Z,6.30
2022-10-30T23:37:28.457Z,5.53
2022-10-30T23:39:55.230Z,6.68
2022-10-30T23:42:22.134Z,5.72
2022-10-30T23:44:48.659Z,6.15
2022-10-30T23:47:15.272Z,6.22
2022-10-30T23:49:41.760Z,5.47
2022-10-30T23:52:08.246Z,6.43
2022-10-30T23:54:34.751Z,6.72
2022-10-30T23:57:01.240Z,5.47
2022-10-30T23:59:27.758Z,6.82
